Airfield :
LOGIN :

Register | Disclaimer

   EN    FR    IT 

 










Legend :    VFR   Marginal VFR   IFR   Intensive IFR   Very Intensive IFR
Visi :
Ceiling :
>= 8 km
>= 3000ft
5 to 8 km
1000 to 3000 ft
1500m to 5 km
500 to 1000 ft
800 to 1500m
200 to 500 ft
< 800m
< 200 ft
Symbols :   Thunderstorms  Fog  Heavy snow  Heavy precipitations  Wind > 20 kt
SIGMETs :     Misc.  Thunderstorms  Icing  Turbulence  Mountain Waves  Volcanic Ashes






- Airport Elevation : 220 ft
- IATA code : CWL


EGFF - Cardiff Rhoose

CURRENT METAR :
  • 041050Z AUTO 29011KT 9999 OVC030 17/11 Q1023

EXPIRED METARs :
  • 041020Z AUTO 29012KT 9999 BKN028 17/10 Q1023
  • 040950Z AUTO 29013KT 9999 BKN028 16/10 Q1022
  • 040920Z AUTO 29013KT 9999 BKN026 16/10 Q1022
  • 040850Z AUTO 30013KT 9999 SCT025 BKN034 16/11 Q1022

TAF AMD TAF EGFF
Valid from the 04 at 07:00 until the 05 at 06:00 UTC


040712Z 0407/0506 29011KT 9999 SCT030
TEMPO 0407/0409 BKN010
ATIS : +44 1446 729 319



MET'MAP, your aeronautical weather chart ! - Copyright ORBIFLY December 2007 - Disclaimer

ORBIFLY MET'MAP TEAM :

Programming & Development : Alexandra Zaïnal
Original concept : Baudouin d'Aumeries
Technical & hardware support : Manuel Goepfert
Assistance : Marc-Olivier Méhu




SOURCES & CREDITS :

   NOAA